createdAt,value
2023-05-07T00:02:24.240Z,14.50
2023-05-07T00:04:51.385Z,14.50
2023-05-07T00:07:18.272Z,14.50
2023-05-07T00:09:45.104Z,14.50
2023-05-07T00:12:12.188Z,14.50
2023-05-07T00:14:39.064Z,14.50
2023-05-07T00:17:05.993Z,14.50
2023-05-07T00:19:32.896Z,14.40
2023-05-07T00:21:59.852Z,14.30
2023-05-07T00:24:26.702Z,14.30
2023-05-07T00:26:53.806Z,14.20
2023-05-07T00:29:21.079Z,14.20
2023-05-07T00:31:47.902Z,14.20
2023-05-07T00:34:14.676Z,14.20
2023-05-07T00:36:41.590Z,14.20
2023-05-07T00:39:08.357Z,14.20
2023-05-07T00:41:35.631Z,14.20
2023-05-07T00:44:03.644Z,14.20
2023-05-07T00:46:32.184Z,14.20
2023-05-07T00:49:00.439Z,14.20
2023-05-07T00:51:28.389Z,14.20
2023-05-07T00:53:55.481Z,14.20
2023-05-07T00:56:23.236Z,14.10
2023-05-07T00:58:50.359Z,14.10
2023-05-07T01:01:17.728Z,13.90
2023-05-07T01:03:44.924Z,13.90
2023-05-07T01:06:14.363Z,13.90
2023-05-07T01:08:42.530Z,13.90
2023-05-07T01:11:10.989Z,13.90
2023-05-07T01:13:39.650Z,13.80
2023-05-07T01:16:07.639Z,13.70
2023-05-07T01:18:34.548Z,13.60
2023-05-07T01:21:04.905Z,13.50
2023-05-07T01:23:32.632Z,13.50
2023-05-07T01:25:59.554Z,13.50
2023-05-07T01:28:28.309Z,13.40
2023-05-07T01:31:03.603Z,13.40
2023-05-07T01:33:34.716Z,13.30
2023-05-07T01:36:04.617Z,13.30
2023-05-07T01:38:31.793Z,13.20
2023-05-07T01:40:59.185Z,13.20
2023-05-07T01:43:26.551Z,13.10
2023-05-07T01:45:54.344Z,13.10
2023-05-07T01:48:21.677Z,13.20
2023-05-07T01:50:49.510Z,13.10
2023-05-07T01:53:16.388Z,13.10
2023-05-07T01:55:43.850Z,13.20
2023-05-07T01:58:13.787Z,13.20
2023-05-07T02:03:44.210Z,13.10
2023-05-07T02:06:20.422Z,13.10
2023-05-07T02:08:48.188Z,13.00
2023-05-07T02:11:16.110Z,13.10
2023-05-07T02:13:43.121Z,13.10
2023-05-07T02:16:10.092Z,13.00
2023-05-07T02:18:37.053Z,13.00
2023-05-07T02:21:04.112Z,13.00
2023-05-07T02:23:31.332Z,13.00
2023-05-07T02:25:58.175Z,13.00
2023-05-07T02:28:25.321Z,13.00
2023-05-07T02:31:01.633Z,13.00
2023-05-07T02:33:29.520Z,12.80
2023-05-07T02:35:56.922Z,12.90
2023-05-07T02:38:24.464Z,12.80
2023-05-07T02:40:51.309Z,12.90
2023-05-07T02:43:18.462Z,12.90
2023-05-07T02:45:47.915Z,12.90
2023-05-07T02:48:15.840Z,13.00
2023-05-07T02:50:43.260Z,12.90
2023-05-07T02:53:14.056Z,13.00
2023-05-07T02:55:40.885Z,12.80
2023-05-07T02:58:07.725Z,12.80
2023-05-07T03:00:36.758Z,12.70
2023-05-07T03:03:26.538Z,12.70
2023-05-07T03:05:53.328Z,12.80
2023-05-07T03:08:20.240Z,12.70
2023-05-07T03:10:47.185Z,12.70
2023-05-07T03:13:14.163Z,12.80
2023-05-07T03:15:41.346Z,12.80
2023-05-07T03:18:08.294Z,12.80
2023-05-07T03:20:35.275Z,12.80
2023-05-07T03:23:02.277Z,12.80
2023-05-07T03:25:31.041Z,12.70
2023-05-07T03:27:58.005Z,12.70
2023-05-07T03:30:29.791Z,12.80
2023-05-07T03:32:56.763Z,12.80
2023-05-07T03:35:24.173Z,12.80
2023-05-07T03:37:51.738Z,12.80
2023-05-07T03:40:19.185Z,12.80
2023-05-07T03:42:49.613Z,12.80
2023-05-07T03:45:18.601Z,12.80
2023-05-07T03:47:51.149Z,12.90
2023-05-07T03:50:20.896Z,12.80
2023-05-07T03:52:47.808Z,12.90
2023-05-07T03:55:17.248Z,12.90
2023-05-07T03:57:49.800Z,12.90
2023-05-07T04:00:17.394Z,12.90
2023-05-07T04:02:50.204Z,12.90
2023-05-07T04:05:24.132Z,13.00
2023-05-07T04:07:55.355Z,13.00
2023-05-07T04:10:29.246Z,13.00
2023-05-07T04:12:58.193Z,12.90
2023-05-07T04:15:26.595Z,13.00
2023-05-07T04:17:53.360Z,13.00
2023-05-07T04:20:22.765Z,12.90
2023-05-07T04:22:56.652Z,12.90
2023-05-07T04:25:27.896Z,12.70
2023-05-07T04:28:00.400Z,12.70
2023-05-07T04:30:29.139Z,12.70
2023-05-07T04:32:55.950Z,12.70
2023-05-07T04:35:23.933Z,12.70
2023-05-07T04:37:50.853Z,12.70
2023-05-07T04:40:18.115Z,12.70
2023-05-07T04:42:45.504Z,12.70
2023-05-07T04:45:17.556Z,12.80
2023-05-07T04:47:46.235Z,12.80
2023-05-07T04:53:02.364Z,12.80
2023-05-07T04:55:29.192Z,12.80
2023-05-07T04:57:56.112Z,12.70
2023-05-07T05:00:23.997Z,12.60
2023-05-07T05:02:53.271Z,12.70
2023-05-07T05:05:25.481Z,12.70
2023-05-07T05:07:54.709Z,12.70
2023-05-07T05:10:24.621Z,12.60
2023-05-07T05:12:52.403Z,12.70
2023-05-07T05:15:20.766Z,12.70
2023-05-07T05:17:47.712Z,12.70
2023-05-07T05:20:15.880Z,12.70
2023-05-07T05:22:43.305Z,12.60
2023-05-07T05:25:11.019Z,12.50
2023-05-07T05:27:37.895Z,12.50
2023-05-07T05:30:06.768Z,12.60
2023-05-07T05:32:34.956Z,12.60
2023-05-07T05:35:02.893Z,12.60
2023-05-07T05:37:31.262Z,12.60
2023-05-07T05:39:59.644Z,12.70
2023-05-07T05:42:28.969Z,12.60
2023-05-07T05:44:56.195Z,12.70
2023-05-07T05:47:23.977Z,12.70
2023-05-07T05:49:53.796Z,12.70
2023-05-07T05:52:21.077Z,12.80
2023-05-07T05:54:47.877Z,12.80
2023-05-07T05:57:14.940Z,12.80
2023-05-07T05:59:42.150Z,12.80
2023-05-07T06:02:09.004Z,12.80
2023-05-07T06:04:36.158Z,12.80
2023-05-07T06:07:04.056Z,12.70
2023-05-07T06:09:30.966Z,12.70
2023-05-07T06:12:00.353Z,12.70
2023-05-07T06:14:27.903Z,12.60
2023-05-07T06:16:57.877Z,12.60
2023-05-07T06:19:25.082Z,12.60
2023-05-07T06:21:54.103Z,12.60
2023-05-07T06:24:21.031Z,12.60
2023-05-07T06:26:47.972Z,12.70
2023-05-07T06:29:14.849Z,12.80
2023-05-07T06:31:43.200Z,12.80
2023-05-07T06:34:15.141Z,12.80
2023-05-07T06:36:42.454Z,12.70
2023-05-07T06:39:21.907Z,12.80
2023-05-07T06:41:48.672Z,12.80
2023-05-07T06:44:24.437Z,12.80
2023-05-07T06:47:07.421Z,12.80
2023-05-07T06:49:37.547Z,12.90
2023-05-07T06:52:04.532Z,13.00
2023-05-07T06:54:32.018Z,13.00
2023-05-07T06:56:59.255Z,13.00
2023-05-07T06:59:28.014Z,13.10
2023-05-07T07:01:55.158Z,13.10
2023-05-07T07:04:25.532Z,13.10
2023-05-07T07:07:00.366Z,13.10
2023-05-07T07:09:36.992Z,13.00
2023-05-07T07:12:06.308Z,12.90
2023-05-07T07:14:34.110Z,12.90
2023-05-07T07:17:01.065Z,12.80
2023-05-07T07:19:28.422Z,12.80
2023-05-07T07:21:56.387Z,12.80
2023-05-07T07:24:23.263Z,12.70
2023-05-07T07:26:56.374Z,12.70
2023-05-07T07:29:26.724Z,12.80
2023-05-07T07:31:54.277Z,12.80
2023-05-07T07:34:22.074Z,12.80
2023-05-07T07:36:49.942Z,12.70
2023-05-07T07:39:18.932Z,12.70
2023-05-07T07:41:47.797Z,12.70
2023-05-07T07:44:16.615Z,12.70
2023-05-07T07:46:47.865Z,12.70
2023-05-07T07:49:15.750Z,12.80
2023-05-07T07:51:43.470Z,13.00
2023-05-07T07:54:11.609Z,13.10
2023-05-07T07:56:39.958Z,13.10
2023-05-07T07:59:21.285Z,13.20
2023-05-07T08:02:27.579Z,13.20
2023-05-07T08:04:58.973Z,13.20
2023-05-07T14:55:18.933Z,16.10
2023-05-07T17:19:31.439Z,15.20
2023-05-07T17:22:00.586Z,15.10
2023-05-07T17:24:30.079Z,15.10
2023-05-07T17:26:56.951Z,15.00
2023-05-07T17:29:23.796Z,14.90
2023-05-07T17:31:50.629Z,14.90
2023-05-07T17:34:17.431Z,14.80
2023-05-07T17:36:44.207Z,14.90
2023-05-07T17:39:11.045Z,14.90
2023-05-07T17:41:37.883Z,14.90
2023-05-07T17:44:04.929Z,14.90
2023-05-07T17:46:32.104Z,14.80
2023-05-07T17:48:58.972Z,14.80
2023-05-07T17:51:26.181Z,14.80
2023-05-07T17:53:52.988Z,14.70
2023-05-07T17:56:19.774Z,14.60
2023-05-07T17:58:58.866Z,14.70
2023-05-07T18:01:26.321Z,14.70
2023-05-07T18:03:53.356Z,14.70
2023-05-07T18:06:22.126Z,14.70
2023-05-07T18:08:49.322Z,14.70
2023-05-07T18:11:25.074Z,14.60
2023-05-07T18:13:52.192Z,14.60
2023-05-07T18:16:19.937Z,14.60
2023-05-07T18:18:55.141Z,14.60
2023-05-07T18:21:22.041Z,14.60
2023-05-07T18:23:49.460Z,14.50
2023-05-07T18:26:25.583Z,14.50
2023-05-07T18:28:52.415Z,14.40
2023-05-07T18:31:20.725Z,14.40
2023-05-07T18:33:47.579Z,14.30
2023-05-07T18:36:14.353Z,14.30
2023-05-07T18:41:23.380Z,14.20
2023-05-07T18:43:50.228Z,14.10
2023-05-07T18:46:17.055Z,14.00
2023-05-07T18:48:43.935Z,14.00
2023-05-07T18:51:16.433Z,13.90
2023-05-07T18:53:43.232Z,13.80
2023-05-07T18:56:10.039Z,13.80
2023-05-07T18:58:36.895Z,13.70
2023-05-07T19:01:08.614Z,13.70
2023-05-07T19:03:36.044Z,13.60
2023-05-07T19:06:03.205Z,13.60
2023-05-07T19:08:30.048Z,13.50
2023-05-07T19:10:56.944Z,13.40
2023-05-07T19:13:30.531Z,13.40
2023-05-07T19:15:57.548Z,13.30
2023-05-07T19:18:24.503Z,13.30
2023-05-07T19:20:56.436Z,13.20
2023-05-07T19:23:25.557Z,13.20
2023-05-07T19:25:52.519Z,13.10
2023-05-07T19:28:19.300Z,13.10
2023-05-07T19:30:46.152Z,13.00
2023-05-07T19:33:13.156Z,12.90
2023-05-07T19:35:40.006Z,12.90
2023-05-07T19:38:08.132Z,12.80
2023-05-07T19:40:35.019Z,12.80
2023-05-07T19:43:01.907Z,12.70
2023-05-07T19:45:29.842Z,12.60
2023-05-07T19:47:56.787Z,12.60
2023-05-07T19:50:28.923Z,12.60
2023-05-07T19:52:55.902Z,12.50
2023-05-07T19:55:22.850Z,12.50
2023-05-07T19:57:50.339Z,12.40
2023-05-07T20:00:21.996Z,12.40
2023-05-07T20:02:51.261Z,12.40
2023-05-07T20:05:18.436Z,12.40
2023-05-07T20:07:46.315Z,12.40
2023-05-07T20:10:13.706Z,12.30
2023-05-07T20:12:40.771Z,12.30
2023-05-07T20:15:08.317Z,12.30
2023-05-07T20:17:35.123Z,12.20
2023-05-07T20:20:02.017Z,12.20
2023-05-07T20:22:32.402Z,12.20
2023-05-07T20:24:59.391Z,12.10
2023-05-07T20:27:26.364Z,12.10
2023-05-07T20:29:53.818Z,12.00
2023-05-07T20:32:20.773Z,12.00
2023-05-07T20:34:47.733Z,12.00
2023-05-07T20:37:15.734Z,12.00
2023-05-07T20:39:42.795Z,11.90
2023-05-07T20:42:09.760Z,11.90
2023-05-07T20:44:36.908Z,11.90
2023-05-07T20:47:03.693Z,11.80
2023-05-07T20:49:30.438Z,11.80
2023-05-07T20:51:58.271Z,11.70
2023-05-07T20:54:28.044Z,11.70
2023-05-07T20:56:55.543Z,11.70
2023-05-07T20:59:22.487Z,11.70
2023-05-07T21:01:49.529Z,11.70
2023-05-07T21:04:16.323Z,11.70
2023-05-07T21:06:43.650Z,11.60
2023-05-07T21:09:11.204Z,11.60
2023-05-07T21:11:38.075Z,11.60
2023-05-07T21:14:04.807Z,11.60
2023-05-07T21:16:31.822Z,11.60
2023-05-07T21:18:58.655Z,11.50
2023-05-07T21:21:25.506Z,11.50
2023-05-07T21:23:53.507Z,11.50
2023-05-07T21:26:20.670Z,11.50
2023-05-07T21:28:47.484Z,11.50
2023-05-07T21:31:14.417Z,11.50
2023-05-07T21:33:42.294Z,11.50
2023-05-07T21:36:09.422Z,11.60
2023-05-07T21:38:37.756Z,11.50
2023-05-07T21:41:05.188Z,11.60
2023-05-07T21:43:32.175Z,11.60
2023-05-07T21:45:59.444Z,11.60
2023-05-07T21:48:26.834Z,11.60
2023-05-07T21:51:05.388Z,11.60
2023-05-07T21:53:32.666Z,11.60
2023-05-07T21:56:03.026Z,11.60
2023-05-07T21:58:31.049Z,11.60
2023-05-07T22:00:58.704Z,11.60
2023-05-07T22:03:25.603Z,11.60
2023-05-07T22:05:52.876Z,11.60
2023-05-07T22:08:19.773Z,11.70
2023-05-07T22:10:46.588Z,11.70
2023-05-07T22:13:13.474Z,11.70
2023-05-07T22:15:53.164Z,11.70
2023-05-07T22:18:23.336Z,11.60
2023-05-07T22:20:51.863Z,11.60
2023-05-07T22:23:18.668Z,11.60
2023-05-07T22:25:45.557Z,11.60
2023-05-07T22:28:12.301Z,11.60
2023-05-07T22:30:39.188Z,11.60
2023-05-07T22:33:06.199Z,11.60
2023-05-07T22:35:33.117Z,11.60
2023-05-07T22:38:00.059Z,11.60
2023-05-07T22:40:27.011Z,11.60
2023-05-07T22:42:53.771Z,11.50
2023-05-07T22:45:20.865Z,11.50
2023-05-07T22:47:47.651Z,11.50
2023-05-07T22:50:14.634Z,11.50
2023-05-07T22:52:41.685Z,11.50
2023-05-07T22:55:08.806Z,11.60
2023-05-07T22:57:35.660Z,11.50
2023-05-07T23:00:02.658Z,11.50
2023-05-07T23:02:29.566Z,11.40
2023-05-07T23:04:59.875Z,11.40
2023-05-07T23:07:26.796Z,11.40
2023-05-07T23:09:54.025Z,11.40
2023-05-07T23:12:20.834Z,11.40
2023-05-07T23:14:47.581Z,11.30
2023-05-07T23:17:14.365Z,11.30
2023-05-07T23:19:41.920Z,11.30
2023-05-07T23:22:10.138Z,11.30
2023-05-07T23:24:36.979Z,11.20
2023-05-07T23:27:07.439Z,11.20
2023-05-07T23:29:35.287Z,11.30
2023-05-07T23:32:02.244Z,11.30
2023-05-07T23:34:28.949Z,11.30
2023-05-07T23:36:58.558Z,11.40
2023-05-07T23:39:25.396Z,11.40
2023-05-07T23:41:52.478Z,11.40
2023-05-07T23:44:19.442Z,11.30
2023-05-07T23:46:46.719Z,11.40
2023-05-07T23:49:13.602Z,11.30
2023-05-07T23:51:40.393Z,11.30
2023-05-07T23:54:07.309Z,11.30
2023-05-07T23:56:34.229Z,11.20
2023-05-07T23:59:01.206Z,11.30
